Terminal Aerodrome Forecast
Issued by NWS

Home | Current Version | Previous Version | Text Only | Print | Product List | Glossary On
Versions: 1 2 3 4 5 6 7 8 9 10 11 12 13 14 15 16 17 18 19 20 21 22
892
FTUS43 KILX 251140
TAFBMI
TAF
KBMI 251140Z 2512/2612 02012KT P6SM SCT030 BKN250
      TEMPO 2512/2515 BKN030
     FM252000 01010KT P6SM SCT250
     FM260000 03005KT P6SM FEW250=

USA.gov is the U.S. government's official web portal to all federal, state and local government web resources and services.